Time;durP1;ratioP1;P1;durP2;ratioP2;P2;SDS_P1;SDS_P2;PMS_P1;PMS_P2;Temp;Humidity;BMP_temperature;BMP_pressure;BME280_temperature;BME280_humidity;BME280_pressure;Samples;Min_cycle;Max_cycle;Signal;HPM_P1;HPM_P2
2021/01/21 00:01:18;;;;;;;3.72;2.80;;;4.40;99.90;;;;;;5052114;28;20207;-74
2021/01/21 00:03:45;;;;;;;3.38;2.50;;;4.50;99.90;;;;;;5051317;28;20577;-73
2021/01/21 00:06:11;;;;;;;3.33;2.33;;;4.70;99.90;;;;;;5052027;28;20221;-73
2021/01/21 00:08:38;;;;;;;2.55;2.35;;;4.80;99.90;;;;;;5052958;28;20259;-72
2021/01/21 00:11:06;;;;;;;2.50;2.13;;;4.80;99.90;;;;;;5089775;22;20248;-92
2021/01/21 00:13:33;;;;;;;2.53;2.28;;;4.80;99.90;;;;;;5098923;28;20214;-92
2021/01/21 00:16:01;;;;;;;2.60;2.40;;;4.80;99.90;;;;;;5098389;28;20207;-91
2021/01/21 00:18:31;;;;;;;3.38;2.80;;;4.80;99.90;;;;;;5096471;28;20254;-91
2021/01/21 00:24:22;;;;;;;2.85;2.53;;;4.80;99.90;;;;;;5097151;28;20195;-93
2021/01/21 00:26:49;;;;;;;3.50;2.15;;;4.80;99.90;;;;;;5096103;28;20271;-92
2021/01/21 00:29:17;;;;;;;3.78;2.20;;;4.80;99.90;;;;;;5095939;28;20204;-91
2021/01/21 00:31:47;;;;;;;2.30;2.05;;;4.80;99.90;;;;;;5095874;28;20734;-91
2021/01/21 00:34:15;;;;;;;2.42;1.92;;;4.90;99.90;;;;;;5096733;28;20207;-91
2021/01/21 00:36:42;;;;;;;2.63;1.90;;;4.90;99.90;;;;;;5095918;28;20196;-91
2021/01/21 00:39:09;;;;;;;8.60;2.92;;;4.90;99.90;;;;;;5095819;28;20204;-91
2021/01/21 00:47:13;;;;;;;3.08;1.90;;;4.80;99.90;;;;;;5081550;28;20267;-91
2021/01/21 00:52:24;;;;;;;2.33;1.95;;;4.80;99.90;;;;;;5092414;28;20553;-92
2021/01/21 00:54:51;;;;;;;2.75;1.80;;;4.90;99.90;;;;;;5095447;28;20229;-91
2021/01/21 00:57:18;;;;;;;4.60;2.35;;;5.10;99.90;;;;;;5095244;28;20216;-92
2021/01/21 01:12:53;;;;;;;3.40;2.40;;;5.00;99.90;;;;;;5057148;28;20252;-92
2021/01/21 01:36:15;;;;;;;1.50;1.40;;;6.30;99.90;;;;;;4997138;28;20190;-92
2021/01/21 01:42:24;;;;;;;2.90;1.63;;;6.70;99.90;;;;;;5013201;28;20698;-92
2021/01/21 02:08:28;;;;;;;2.03;1.60;;;7.00;99.30;;;;;;5094288;28;20564;-92
2021/01/21 02:14:35;;;;;;;3.05;1.40;;;7.10;99.10;;;;;;5095635;28;20199;-93
2021/01/21 02:23:46;;;;;;;1.67;1.40;;;7.00;99.40;;;;;;5000761;28;20193;-92
2021/01/21 02:27:01;;;;;;;3.10;2.30;;;6.90;99.60;;;;;;5090478;28;20286;-93
2021/01/21 02:29:48;;;;;;;2.33;1.90;;;6.90;99.90;;;;;;5095254;28;20224;-92
2021/01/21 02:33:05;;;;;;;2.08;1.88;;;6.80;99.90;;;;;;5095637;28;20234;-92
2021/01/21 02:35:48;;;;;;;1.90;1.50;;;6.70;99.90;;;;;;5094337;28;20290;-93
2021/01/21 02:55:30;;;;;;;2.03;1.50;;;6.80;99.40;;;;;;5095181;28;20200;-93
2021/01/21 03:12:26;;;;;;;4.53;1.50;;;7.40;97.90;;;;;;5099500;28;20214;-92
2021/01/21 03:27:59;;;;;;;2.00;1.58;;;7.20;98.10;;;;;;5050515;28;20270;-92
2021/01/21 03:31:06;;;;;;;2.08;1.40;;;7.20;98.10;;;;;;5052396;28;20206;-92
2021/01/21 03:33:55;;;;;;;3.20;1.58;;;7.20;97.90;;;;;;5057065;28;20201;-93
2021/01/21 03:59:22;;;;;;;1.90;1.70;;;7.50;97.50;;;;;;5030341;28;20255;-72
2021/01/21 04:01:48;;;;;;;2.35;1.60;;;7.50;97.50;;;;;;5031294;28;20263;-71
2021/01/21 04:04:15;;;;;;;1.63;1.40;;;7.50;97.50;;;;;;5031890;28;20210;-71
2021/01/21 04:06:41;;;;;;;1.50;1.30;;;7.50;97.40;;;;;;5031736;28;20206;-73
2021/01/21 04:09:07;;;;;;;1.73;1.55;;;7.40;97.70;;;;;;5031952;28;20771;-72
2021/01/21 04:11:33;;;;;;;5.70;1.58;;;7.30;97.60;;;;;;5031270;28;20202;-72
2021/01/21 04:13:59;;;;;;;4.03;1.58;;;7.30;97.60;;;;;;5031575;28;20692;-72
2021/01/21 04:16:26;;;;;;;2.08;1.40;;;7.40;97.50;;;;;;5031328;28;20201;-72
2021/01/21 04:18:53;;;;;;;3.22;1.60;;;7.30;97.40;;;;;;5031848;28;20225;-71
2021/01/21 04:21:19;;;;;;;1.55;1.25;;;7.40;97.40;;;;;;5031516;28;20206;-71
2021/01/21 04:23:45;;;;;;;2.00;1.20;;;7.40;97.40;;;;;;5031020;28;20210;-72
2021/01/21 04:26:11;;;;;;;1.85;1.50;;;7.40;97.40;;;;;;5031450;28;20275;-72
2021/01/21 04:28:37;;;;;;;1.60;1.25;;;7.40;97.30;;;;;;5032151;28;20216;-70
2021/01/21 04:31:04;;;;;;;2.05;1.15;;;7.50;97.50;;;;;;5032975;28;20217;-72
2021/01/21 04:33:31;;;;;;;1.92;1.25;;;7.60;97.30;;;;;;5032574;28;20791;-71
2021/01/21 04:35:57;;;;;;;1.30;1.13;;;7.60;97.20;;;;;;5033030;28;20229;-73
2021/01/21 04:38:23;;;;;;;1.63;1.10;;;7.70;96.90;;;;;;5026970;28;20225;-73
2021/01/21 04:40:49;;;;;;;1.73;1.30;;;7.70;97.00;;;;;;5013867;28;20693;-73
2021/01/21 04:43:15;;;;;;;1.27;1.17;;;7.80;96.70;;;;;;5013219;28;20219;-74
2021/01/21 04:45:42;;;;;;;4.53;1.60;;;8.00;96.50;;;;;;5012952;28;20630;-73
2021/01/21 04:48:09;;;;;;;2.35;1.10;;;8.00;96.60;;;;;;5013054;28;20253;-73
2021/01/21 04:50:36;;;;;;;1.42;1.15;;;8.10;96.70;;;;;;5012480;28;20202;-74
2021/01/21 04:53:06;;;;;;;1.60;1.20;;;8.00;96.30;;;;;;5012362;28;20697;-73
2021/01/21 04:55:36;;;;;;;1.55;1.20;;;8.10;96.60;;;;;;5012227;28;20709;-73
2021/01/21 04:58:10;;;;;;;1.40;1.20;;;8.10;96.40;;;;;;5029009;28;20224;-75
2021/01/21 05:00:38;;;;;;;1.40;1.10;;;8.10;96.40;;;;;;5049636;28;20205;-74
2021/01/21 05:03:05;;;;;;;1.67;1.45;;;8.10;96.30;;;;;;5049871;28;20220;-73
2021/01/21 05:05:31;;;;;;;1.30;1.15;;;8.10;96.40;;;;;;5050533;28;20225;-74
2021/01/21 05:07:59;;;;;;;2.88;1.45;;;8.10;96.60;;;;;;5051002;28;20214;-74
2021/01/21 05:10:26;;;;;;;1.95;1.23;;;8.00;96.50;;;;;;5051501;28;20827;-73
2021/01/21 05:12:52;;;;;;;1.40;1.30;;;8.00;96.90;;;;;;5048793;28;20205;-74
2021/01/21 05:15:18;;;;;;;1.50;1.38;;;8.00;96.70;;;;;;5050095;28;20601;-73
2021/01/21 05:17:45;;;;;;;2.45;1.40;;;8.10;96.50;;;;;;5049352;28;20225;-74
2021/01/21 05:20:12;;;;;;;2.00;1.40;;;8.10;96.50;;;;;;5068387;28;20547;-72
2021/01/21 05:22:39;;;;;;;4.25;1.35;;;8.10;96.40;;;;;;5068372;28;20189;-74
2021/01/21 05:25:07;;;;;;;2.05;1.30;;;8.20;96.50;;;;;;5069404;28;20567;-73
2021/01/21 05:27:35;;;;;;;1.75;1.35;;;8.20;96.30;;;;;;5069362;28;20676;-71
2021/01/21 05:30:04;;;;;;;1.80;1.25;;;8.20;96.30;;;;;;5069144;28;20273;-72
2021/01/21 05:32:30;;;;;;;1.25;1.15;;;8.20;96.30;;;;;;5049895;28;20230;-73
2021/01/21 05:34:57;;;;;;;1.52;1.10;;;8.30;96.30;;;;;;5067488;28;20224;-73
2021/01/21 05:37:23;;;;;;;2.20;1.40;;;8.20;96.30;;;;;;5069298;28;20243;-73
2021/01/21 05:39:51;;;;;;;1.10;1.00;;;8.20;96.40;;;;;;5069375;28;20200;-72
2021/01/21 05:42:18;;;;;;;4.13;1.23;;;8.20;96.30;;;;;;5068957;28;20207;-73
2021/01/21 05:44:45;;;;;;;1.38;1.10;;;8.20;96.40;;;;;;5068874;28;20220;-72
2021/01/21 05:47:11;;;;;;;1.58;1.30;;;8.20;96.30;;;;;;5069400;28;20201;-73
2021/01/21 05:49:38;;;;;;;1.27;1.00;;;8.20;96.50;;;;;;5068605;28;20274;-72
2021/01/21 05:52:04;;;;;;;1.58;1.10;;;8.20;96.20;;;;;;5068723;28;20196;-73
2021/01/21 05:54:31;;;;;;;1.40;1.27;;;8.30;96.20;;;;;;5068728;28;20227;-73
2021/01/21 05:56:59;;;;;;;1.70;1.10;;;8.30;96.00;;;;;;5069367;28;20203;-70
2021/01/21 05:59:28;;;;;;;1.40;1.30;;;8.30;96.00;;;;;;5069117;28;20196;-73
2021/01/21 06:01:54;;;;;;;1.17;1.05;;;8.30;96.30;;;;;;5068241;28;20200;-72
2021/01/21 06:04:26;;;;;;;5.55;1.17;;;8.20;96.20;;;;;;5069070;28;20224;-73
2021/01/21 06:06:53;;;;;;;1.35;1.10;;;8.20;96.10;;;;;;5068337;28;20350;-73
2021/01/21 06:09:25;;;;;;;1.40;1.10;;;8.20;95.90;;;;;;5068934;28;20192;-73
2021/01/21 06:11:52;;;;;;;1.98;1.10;;;8.20;96.40;;;;;;5108674;22;20281;-89
2021/01/21 06:14:23;;;;;;;1.27;1.10;;;8.30;95.70;;;;;;5071925;28;20227;-91
2021/01/21 06:16:50;;;;;;;1.40;1.02;;;8.30;95.90;;;;;;5075669;28;20214;-91
2021/01/21 06:19:16;;;;;;;1.50;1.02;;;8.30;95.50;;;;;;5076148;28;20213;-91
2021/01/21 06:21:54;;;;;;;2.80;1.20;;;8.30;95.50;;;;;;5074619;28;20221;-91
2021/01/21 06:24:32;;;;;;;1.10;1.00;;;8.30;95.50;;;;;;5069990;28;20201;-90
2021/01/21 06:27:07;;;;;;;3.70;1.33;;;8.30;95.50;;;;;;5055554;28;20556;-90
2021/01/21 06:29:34;;;;;;;2.25;1.10;;;8.40;95.00;;;;;;5055092;28;20200;-90
2021/01/21 06:32:03;;;;;;;2.03;1.10;;;8.50;95.20;;;;;;5056026;28;20221;-90
2021/01/21 06:34:33;;;;;;;1.38;1.27;;;8.40;95.10;;;;;;5056424;28;20685;-91
2021/01/21 06:37:01;;;;;;;2.20;1.33;;;8.50;95.20;;;;;;5057007;28;20197;-90
2021/01/21 06:39:34;;;;;;;1.17;0.90;;;8.50;95.40;;;;;;5056637;28;20225;-90
2021/01/21 06:42:03;;;;;;;1.17;1.00;;;8.50;94.80;;;;;;5058454;28;20225;-91
2021/01/21 06:44:30;;;;;;;3.38;1.60;;;8.60;95.10;;;;;;5060095;28;20201;-91
2021/01/21 06:46:58;;;;;;;1.23;1.00;;;8.60;95.40;;;;;;5060423;28;20197;-91
2021/01/21 06:49:26;;;;;;;1.60;1.50;;;8.70;95.20;;;;;;5073728;28;20201;-91
2021/01/21 06:51:53;;;;;;;1.20;0.95;;;8.70;95.40;;;;;;5068230;28;20706;-91
2021/01/21 06:54:20;;;;;;;1.63;1.30;;;8.70;95.60;;;;;;5057820;28;20235;-92
2021/01/21 06:56:46;;;;;;;1.50;1.20;;;8.70;95.70;;;;;;5054589;28;20197;-91
2021/01/21 06:59:12;;;;;;;2.20;1.23;;;8.70;96.10;;;;;;5057811;28;20224;-90
2021/01/21 07:01:49;;;;;;;1.33;1.10;;;8.80;96.10;;;;;;5057013;28;20225;-89
2021/01/21 07:04:25;;;;;;;1.50;1.38;;;8.80;96.40;;;;;;5060811;28;20211;-90
2021/01/21 07:07:12;;;;;;;1.52;1.20;;;8.90;97.50;;;;;;5060569;28;20299;-89
2021/01/21 07:09:40;;;;;;;1.38;1.27;;;8.90;98.10;;;;;;5057645;28;20208;-91
2021/01/21 07:12:18;;;;;;;1.25;1.10;;;8.90;98.50;;;;;;5057152;28;20236;-92
2021/01/21 07:14:46;;;;;;;1.27;1.17;;;8.90;99.10;;;;;;5058487;28;20658;-90
2021/01/21 07:17:13;;;;;;;1.77;1.30;;;8.90;99.50;;;;;;5059052;28;20208;-91
2021/01/21 07:19:43;;;;;;;1.50;1.20;;;8.90;99.90;;;;;;5061969;28;20197;-91
2021/01/21 07:22:17;;;;;;;1.55;1.10;;;8.70;99.90;;;;;;5061851;28;20225;-91
2021/01/21 07:24:58;;;;;;;1.40;1.20;;;8.70;99.90;;;;;;5062062;28;20232;-90
2021/01/21 07:27:27;;;;;;;2.80;1.25;;;8.70;99.90;;;;;;5061916;28;20235;-90
2021/01/21 07:30:15;;;;;;;1.25;1.15;;;8.70;99.90;;;;;;5061728;28;20705;-91
2021/01/21 07:32:42;;;;;;;1.70;1.40;;;8.70;99.90;;;;;;5062126;28;20216;-90
2021/01/21 07:35:34;;;;;;;1.00;0.90;;;8.60;99.90;;;;;;5061775;28;20213;-91
2021/01/21 07:38:01;;;;;;;1.58;1.20;;;8.60;99.90;;;;;;5062181;28;20690;-91
2021/01/21 07:40:42;;;;;;;2.78;1.50;;;8.70;99.90;;;;;;5061488;28;20205;-90
2021/01/21 07:43:08;;;;;;;1.60;1.40;;;8.60;99.90;;;;;;5061203;28;20255;-90
2021/01/21 07:45:44;;;;;;;1.35;1.10;;;8.70;99.90;;;;;;5061630;28;20374;-91
2021/01/21 07:48:24;;;;;;;1.50;1.30;;;8.70;99.90;;;;;;5060873;28;20197;-91
2021/01/21 07:50:51;;;;;;;2.35;1.17;;;8.70;99.90;;;;;;5060932;28;20201;-90
2021/01/21 07:53:21;;;;;;;1.67;1.38;;;8.70;99.90;;;;;;5059333;28;20213;-90
2021/01/21 07:55:49;;;;;;;1.33;1.20;;;8.70;99.90;;;;;;5060421;28;20227;-90
2021/01/21 07:58:37;;;;;;;2.25;1.08;;;8.70;99.90;;;;;;5054426;28;20221;-92
2021/01/21 08:01:08;;;;;;;1.30;1.10;;;8.80;99.90;;;;;;5064880;28;20258;-93
2021/01/21 08:03:40;;;;;;;1.10;1.00;;;9.10;99.90;;;;;;5067549;28;20262;-93
2021/01/21 08:06:07;;;;;;;2.00;1.25;;;9.30;99.90;;;;;;5069887;28;20205;-92
2021/01/21 08:08:35;;;;;;;1.40;1.23;;;9.40;99.90;;;;;;5068983;28;20178;-94
2021/01/21 08:11:02;;;;;;;1.08;0.98;;;9.40;99.90;;;;;;5075471;23;20206;-73
2021/01/21 08:13:29;;;;;;;1.45;1.13;;;9.50;99.90;;;;;;5028976;28;20268;-74
2021/01/21 08:15:55;;;;;;;1.33;1.23;;;9.50;99.90;;;;;;5029742;28;20309;-71
2021/01/21 08:18:21;;;;;;;1.50;1.30;;;9.50;99.90;;;;;;5029822;28;20234;-71
2021/01/21 08:20:48;;;;;;;1.73;1.50;;;9.50;99.90;;;;;;5027500;28;20260;-73
2021/01/21 08:23:15;;;;;;;1.17;1.00;;;9.90;99.90;;;;;;5029352;28;20222;-70
2021/01/21 08:25:44;;;;;;;1.55;1.20;;;10.80;99.90;;;;;;5029596;28;20222;-73
2021/01/21 08:28:13;;;;;;;1.25;1.00;;;11.50;99.70;;;;;;5029238;28;20201;-72
2021/01/21 08:30:40;;;;;;;1.40;1.20;;;11.70;99.90;;;;;;5028587;28;20217;-73
2021/01/21 08:33:11;;;;;;;1.10;0.90;;;11.40;99.90;;;;;;5029374;28;20205;-72
2021/01/21 08:35:45;;;;;;;1.23;0.95;;;11.50;99.90;;;;;;5020469;28;20222;-73
2021/01/21 08:38:13;;;;;;;1.30;1.15;;;11.60;99.90;;;;;;5029388;28;20212;-73
2021/01/21 08:40:40;;;;;;;1.60;1.38;;;11.60;99.90;;;;;;5027952;28;20205;-73
2021/01/21 08:43:08;;;;;;;1.20;1.00;;;11.60;99.90;;;;;;5029241;28;20621;-72
2021/01/21 08:45:34;;;;;;;1.25;1.15;;;11.30;99.90;;;;;;5029401;28;20222;-72
2021/01/21 08:48:01;;;;;;;1.13;1.00;;;11.10;99.90;;;;;;5028976;28;20205;-73
2021/01/21 08:50:35;;;;;;;1.77;1.30;;;11.20;99.90;;;;;;5027826;28;20210;-72
2021/01/21 08:53:04;;;;;;;1.98;1.20;;;11.00;99.90;;;;;;5028474;28;20274;-72
2021/01/21 08:55:39;;;;;;;1.25;1.00;;;10.50;99.90;;;;;;5020988;28;20226;-72
2021/01/21 08:58:08;;;;;;;1.17;1.08;;;10.10;99.90;;;;;;5028914;28;20240;-72
2021/01/21 09:00:35;;;;;;;1.75;1.10;;;9.90;99.90;;;;;;5027469;28;20578;-72
2021/01/21 09:03:02;;;;;;;1.27;1.08;;;10.00;99.90;;;;;;5028508;28;20209;-73
2021/01/21 09:05:29;;;;;;;1.52;1.05;;;9.90;99.90;;;;;;5020089;28;20784;-73
2021/01/21 09:08:06;;;;;;;1.35;1.08;;;10.30;99.90;;;;;;5028949;28;20442;-72
2021/01/21 09:10:42;;;;;;;1.25;1.05;;;11.80;99.90;;;;;;5027712;28;20569;-73
2021/01/21 09:13:09;;;;;;;1.70;1.30;;;13.50;98.50;;;;;;5027521;28;20296;-73
2021/01/21 09:15:52;;;;;;;1.50;1.30;;;14.40;97.70;;;;;;5028782;28;20225;-73
2021/01/21 09:18:20;;;;;;;1.27;1.00;;;15.00;96.90;;;;;;5028616;28;20217;-73
2021/01/21 09:20:46;;;;;;;1.03;0.90;;;14.60;97.20;;;;;;5026541;28;20703;-73
2021/01/21 09:23:19;;;;;;;1.33;1.10;;;14.50;97.10;;;;;;5027769;28;20460;-73
2021/01/21 09:25:46;;;;;;;1.43;1.20;;;15.10;96.60;;;;;;5028427;28;20245;-73
2021/01/21 09:28:13;;;;;;;1.57;1.20;;;16.20;95.50;;;;;;5028591;28;20479;-73
2021/01/21 09:30:40;;;;;;;1.20;1.10;;;17.50;94.00;;;;;;5026811;28;20963;-73
2021/01/21 09:33:07;;;;;;;1.33;1.07;;;18.50;92.80;;;;;;5027803;28;20460;-73
2021/01/21 09:35:34;;;;;;;1.40;1.10;;;19.70;90.90;;;;;;5028868;28;20615;-73
2021/01/21 09:38:00;;;;;;;2.53;1.10;;;18.60;91.00;;;;;;5027602;28;20508;-72
2021/01/21 09:40:28;;;;;;;1.40;1.23;;;16.80;92.40;;;;;;5028153;28;20526;-73
2021/01/21 09:42:56;;;;;;;1.30;1.07;;;15.20;94.00;;;;;;5026839;28;20464;-73
2021/01/21 09:45:24;;;;;;;1.33;1.17;;;14.20;95.10;;;;;;5028024;28;20487;-73
2021/01/21 09:47:51;;;;;;;3.30;1.20;;;15.10;94.70;;;;;;5020493;28;20815;-73
2021/01/21 09:50:17;;;;;;;1.70;1.10;;;16.20;94.10;;;;;;5027783;28;20500;-72
2021/01/21 09:52:44;;;;;;;1.57;1.20;;;17.30;93.10;;;;;;5025865;28;20479;-73
2021/01/21 09:55:11;;;;;;;1.83;1.00;;;19.10;91.40;;;;;;5026693;28;20491;-73
2021/01/21 09:57:39;;;;;;;1.20;1.10;;;19.80;90.20;;;;;;5028010;28;20460;-73
2021/01/21 10:00:06;;;;;;;1.20;1.10;;;19.40;90.10;;;;;;5027758;28;20547;-73
2021/01/21 10:02:33;;;;;;;1.83;1.10;;;20.20;88.40;;;;;;5024251;28;20471;-71
2021/01/21 10:05:00;;;;;;;1.00;0.90;;;20.70;87.20;;;;;;5028460;28;20484;-73
2021/01/21 10:07:26;;;;;;;1.30;1.20;;;19.80;87.30;;;;;;5028609;28;20460;-71
2021/01/21 10:09:52;;;;;;;1.33;1.20;;;20.20;87.50;;;;;;5029362;28;20483;-71
2021/01/21 10:12:18;;;;;;;1.30;1.20;;;20.90;86.10;;;;;;5027098;28;20479;-71
2021/01/21 10:14:45;;;;;;;1.20;1.10;;;22.20;83.60;;;;;;5028577;28;21122;-71
2021/01/21 10:17:11;;;;;;;1.57;1.00;;;21.80;82.30;;;;;;5027914;28;20460;-73
2021/01/21 10:19:39;;;;;;;1.00;0.90;;;21.10;83.00;;;;;;5028664;28;20488;-73
2021/01/21 10:22:05;;;;;;;1.40;1.20;;;20.70;85.00;;;;;;5027192;28;20467;-71
2021/01/21 10:24:32;;;;;;;1.30;1.20;;;20.90;83.80;;;;;;5028472;28;20483;-71
2021/01/21 10:26:59;;;;;;;1.70;1.40;;;22.20;82.40;;;;;;5028903;28;20522;-71
2021/01/21 10:29:25;;;;;;;1.43;1.07;;;22.50;80.80;;;;;;5027987;28;20468;-71
2021/01/21 10:31:51;;;;;;;1.20;1.10;;;22.50;79.20;;;;;;5027491;28;20456;-72
2021/01/21 10:34:18;;;;;;;1.57;1.00;;;20.30;82.60;;;;;;5028223;28;20480;-73
2021/01/21 10:36:45;;;;;;;1.20;1.10;;;18.30;85.90;;;;;;5014940;28;20484;-73
2021/01/21 10:39:11;;;;;;;1.20;1.00;;;16.30;90.00;;;;;;5006386;28;21004;-73
2021/01/21 10:41:38;;;;;;;1.80;1.27;;;14.90;91.70;;;;;;5014587;28;20479;-73
2021/01/21 10:44:04;;;;;;;1.37;1.20;;;15.20;91.90;;;;;;5026713;28;20468;-73
2021/01/21 10:46:30;;;;;;;1.50;1.17;;;16.20;91.00;;;;;;5026520;28;20460;-73
2021/01/21 10:48:57;;;;;;;1.67;1.57;;;16.30;90.60;;;;;;5021439;28;20822;-72
2021/01/21 10:51:23;;;;;;;1.20;1.10;;;15.90;91.10;;;;;;5026408;28;20464;-73
2021/01/21 10:53:50;;;;;;;1.50;1.00;;;15.10;92.90;;;;;;5030687;28;20486;-72
2021/01/21 10:56:17;;;;;;;1.57;1.10;;;14.40;94.20;;;;;;5028489;28;21019;-73
2021/01/21 10:58:43;;;;;;;1.40;1.30;;;13.90;95.00;;;;;;5031341;28;20510;-72
2021/01/21 11:01:09;;;;;;;1.30;1.10;;;14.60;93.70;;;;;;5030934;28;20460;-73
2021/01/21 11:03:36;;;;;;;2.15;1.30;;;14.80;94.10;;;;;;5030509;28;20463;-73
2021/01/21 11:06:02;;;;;;;1.42;1.17;;;14.00;95.00;;;;;;5029134;28;20237;-72
2021/01/21 11:08:29;;;;;;;1.70;1.00;;;14.10;95.20;;;;;;5030823;28;20206;-73
2021/01/21 11:10:56;;;;;;;1.87;1.27;;;15.70;93.50;;;;;;5030638;28;20541;-72
2021/01/21 11:13:22;;;;;;;1.50;1.20;;;16.00;92.60;;;;;;5031040;28;20464;-72
2021/01/21 11:15:49;;;;;;;1.33;1.20;;;15.10;94.30;;;;;;5029905;28;20484;-71
2021/01/21 11:18:15;;;;;;;1.48;1.38;;;14.20;95.50;;;;;;5031899;28;20232;-72
2021/01/21 11:20:42;;;;;;;1.25;1.15;;;13.60;96.40;;;;;;5032224;28;20206;-72
2021/01/21 11:23:09;;;;;;;1.40;1.30;;;13.30;96.60;;;;;;5031681;28;20221;-73
2021/01/21 11:25:35;;;;;;;2.13;1.20;;;13.20;96.30;;;;;;5032144;28;20779;-73
2021/01/21 11:28:03;;;;;;;2.35;1.00;;;13.10;96.50;;;;;;5032834;28;20205;-72
2021/01/21 11:30:30;;;;;;;1.10;1.00;;;13.10;96.40;;;;;;5038613;28;20205;-72
2021/01/21 11:32:56;;;;;;;1.35;1.25;;;12.70;96.50;;;;;;5042215;28;20239;-72
2021/01/21 11:35:23;;;;;;;1.40;1.17;;;13.10;96.50;;;;;;5041496;28;20222;-72
2021/01/21 11:37:49;;;;;;;2.25;1.30;;;13.20;96.00;;;;;;5034522;28;20228;-72
2021/01/21 11:40:15;;;;;;;1.75;1.30;;;13.00;96.10;;;;;;5032148;28;20217;-72
2021/01/21 11:42:42;;;;;;;1.40;1.08;;;12.70;96.70;;;;;;5028728;28;20767;-73
2021/01/21 11:45:10;;;;;;;1.10;1.00;;;12.50;96.60;;;;;;5027749;28;20222;-73
2021/01/21 11:47:39;;;;;;;1.55;1.10;;;12.30;96.70;;;;;;5029105;28;20202;-72
2021/01/21 11:50:08;;;;;;;2.55;1.50;;;12.20;96.90;;;;;;5030784;28;20209;-72
2021/01/21 11:52:34;;;;;;;1.30;1.20;;;12.00;97.00;;;;;;5031335;28;20206;-72
2021/01/21 11:55:00;;;;;;;1.95;1.30;;;12.00;97.40;;;;;;5030891;28;20240;-73
2021/01/21 11:57:26;;;;;;;2.63;1.30;;;11.90;97.20;;;;;;5030952;28;20213;-72
2021/01/21 11:59:53;;;;;;;1.63;1.20;;;12.00;97.20;;;;;;5031335;28;20221;-72
2021/01/21 12:02:20;;;;;;;1.92;1.25;;;11.90;97.10;;;;;;5030081;28;20206;-72
2021/01/21 12:04:46;;;;;;;4.40;1.30;;;11.80;97.20;;;;;;5031214;28;20225;-72
2021/01/21 12:07:12;;;;;;;1.30;1.20;;;11.70;97.50;;;;;;5030744;28;20198;-72
2021/01/21 12:09:38;;;;;;;2.45;1.25;;;11.80;97.50;;;;;;5032008;28;20194;-72
2021/01/21 12:12:05;;;;;;;1.85;1.20;;;11.70;97.50;;;;;;5030610;28;20218;-71
2021/01/21 12:16:59;;;;;;;1.98;1.20;;;11.80;97.80;;;;;;5028906;28;20202;-73
2021/01/21 12:19:28;;;;;;;3.08;1.15;;;11.80;97.80;;;;;;5030220;28;20256;-73
2021/01/21 12:21:54;;;;;;;3.58;1.63;;;11.80;97.70;;;;;;5029768;28;20233;-73
2021/01/21 12:24:20;;;;;;;1.40;1.17;;;11.80;97.60;;;;;;5030688;28;20229;-72
2021/01/21 12:26:47;;;;;;;1.13;1.02;;;11.80;97.90;;;;;;5030579;28;20232;-73
2021/01/21 12:29:13;;;;;;;1.25;1.10;;;11.90;98.00;;;;;;5030665;28;20264;-72
2021/01/21 12:31:39;;;;;;;2.30;1.30;;;11.90;97.90;;;;;;5029484;28;20581;-72
2021/01/21 12:34:05;;;;;;;1.77;1.55;;;11.90;97.80;;;;;;5030059;28;20206;-74
2021/01/21 12:36:33;;;;;;;3.17;1.10;;;11.80;97.90;;;;;;5031297;28;20673;-74
2021/01/21 12:38:59;;;;;;;1.63;1.45;;;11.70;98.20;;;;;;5030621;28;20225;-74
2021/01/21 12:41:26;;;;;;;1.48;1.38;;;11.70;98.10;;;;;;5030666;28;20205;-72
2021/01/21 12:43:52;;;;;;;1.42;1.20;;;11.80;98.30;;;;;;5030188;28;20669;-72
2021/01/21 12:46:18;;;;;;;1.65;1.55;;;12.00;98.00;;;;;;5030517;28;20228;-73
2021/01/21 12:48:45;;;;;;;1.27;1.10;;;12.20;97.90;;;;;;5030803;28;20692;-73
2021/01/21 12:51:11;;;;;;;1.30;1.20;;;12.20;97.80;;;;;;5030255;28;20209;-73
2021/01/21 12:53:38;;;;;;;1.70;1.35;;;12.20;98.00;;;;;;5030434;28;20201;-73
2021/01/21 12:56:05;;;;;;;1.48;1.30;;;12.40;97.70;;;;;;5029888;28;20233;-73
2021/01/21 12:58:31;;;;;;;2.05;1.33;;;12.50;97.60;;;;;;5029628;28;20301;-73
2021/01/21 13:00:58;;;;;;;2.28;1.63;;;12.50;97.70;;;;;;5030034;28;20224;-72
2021/01/21 13:03:25;;;;;;;1.45;1.15;;;12.40;97.80;;;;;;5029643;28;20292;-72
2021/01/21 13:05:51;;;;;;;2.30;1.50;;;12.40;97.80;;;;;;5030055;28;20213;-71
2021/01/21 13:08:18;;;;;;;1.20;1.00;;;12.10;98.20;;;;;;5030208;28;20206;-72
2021/01/21 13:10:45;;;;;;;1.77;1.40;;;12.00;98.50;;;;;;5028251;28;20212;-75
2021/01/21 13:13:13;;;;;;;1.60;1.35;;;11.90;98.70;;;;;;5029186;28;20210;-74
2021/01/21 13:15:40;;;;;;;1.30;1.20;;;11.70;98.70;;;;;;5029452;28;20324;-74
2021/01/21 13:18:06;;;;;;;1.13;0.98;;;11.50;99.00;;;;;;5029248;28;20228;-74
2021/01/21 13:20:32;;;;;;;1.52;1.17;;;11.50;99.30;;;;;;5035152;28;20259;-73
2021/01/21 13:22:58;;;;;;;2.03;1.50;;;11.40;99.30;;;;;;5028247;28;20190;-73
2021/01/21 13:25:25;;;;;;;1.33;1.23;;;11.30;99.50;;;;;;5029992;28;20226;-74
2021/01/21 13:27:52;;;;;;;1.40;1.30;;;11.30;99.60;;;;;;5028876;28;20252;-71
2021/01/21 13:30:19;;;;;;;1.55;1.27;;;11.30;99.70;;;;;;5030108;28;20205;-73
2021/01/21 13:32:45;;;;;;;1.45;1.02;;;11.00;99.80;;;;;;5028830;28;20549;-74
2021/01/21 13:35:12;;;;;;;2.05;1.48;;;11.00;99.90;;;;;;5029463;28;20229;-74
2021/01/21 13:37:38;;;;;;;1.30;1.15;;;10.90;99.90;;;;;;5029611;28;20287;-74
2021/01/21 13:40:08;;;;;;;1.30;1.15;;;10.90;99.90;;;;;;5029942;28;20228;-73
2021/01/21 13:42:34;;;;;;;1.23;1.13;;;10.90;99.90;;;;;;5029380;28;20205;-73
2021/01/21 13:45:01;;;;;;;1.50;1.10;;;10.90;99.90;;;;;;5029093;28;20244;-73
2021/01/21 13:47:27;;;;;;;2.42;1.17;;;10.90;99.90;;;;;;5029593;28;20206;-73
2021/01/21 13:49:53;;;;;;;1.30;1.20;;;10.90;99.90;;;;;;5029675;28;20202;-73
2021/01/21 13:52:19;;;;;;;1.65;1.27;;;10.90;99.90;;;;;;5029115;28;20308;-74
2021/01/21 13:54:46;;;;;;;1.48;1.20;;;10.80;99.90;;;;;;5029763;28;20225;-74
2021/01/21 13:57:13;;;;;;;1.30;1.20;;;10.80;99.90;;;;;;5029599;28;20259;-74
2021/01/21 13:59:39;;;;;;;1.73;1.38;;;10.70;99.90;;;;;;5029299;28;20218;-74
2021/01/21 14:02:06;;;;;;;2.85;1.70;;;10.80;99.90;;;;;;5028330;28;20683;-74
2021/01/21 14:04:33;;;;;;;2.00;1.08;;;10.80;99.90;;;;;;5029622;28;20236;-73
2021/01/21 14:06:59;;;;;;;1.90;1.30;;;10.90;99.90;;;;;;5028958;28;20224;-72
2021/01/21 14:09:25;;;;;;;1.27;1.10;;;10.80;99.90;;;;;;5029400;28;20197;-74
2021/01/21 14:11:52;;;;;;;2.40;1.30;;;10.90;99.90;;;;;;5026544;28;20197;-72
2021/01/21 14:14:18;;;;;;;2.58;1.30;;;10.90;99.90;;;;;;5027817;28;20693;-73
2021/01/21 14:16:47;;;;;;;1.83;1.00;;;10.80;99.90;;;;;;5035610;28;20210;-74
2021/01/21 14:19:14;;;;;;;3.75;1.33;;;10.90;99.90;;;;;;5027707;28;20578;-72
2021/01/21 14:21:41;;;;;;;1.25;1.00;;;10.80;99.90;;;;;;5028346;28;20205;-72
2021/01/21 14:24:10;;;;;;;1.45;1.20;;;10.80;99.90;;;;;;5028367;28;20296;-73
2021/01/21 14:26:36;;;;;;;2.75;1.90;;;10.70;99.90;;;;;;5028328;28;20206;-72
2021/01/21 14:29:03;;;;;;;1.58;1.25;;;10.70;99.90;;;;;;5028543;28;20221;-72
2021/01/21 14:31:29;;;;;;;1.55;1.30;;;10.60;99.90;;;;;;5028592;28;20216;-73
2021/01/21 14:33:55;;;;;;;1.33;1.23;;;10.50;99.90;;;;;;5028314;28;20243;-72
2021/01/21 14:36:24;;;;;;;1.33;1.00;;;10.50;99.90;;;;;;5028194;28;20202;-73
2021/01/21 14:38:50;;;;;;;1.40;1.25;;;10.50;99.90;;;;;;5028641;28;20259;-71
2021/01/21 14:41:16;;;;;;;1.25;1.10;;;10.50;99.90;;;;;;5028532;28;20214;-73
2021/01/21 14:43:42;;;;;;;2.15;1.45;;;10.50;99.90;;;;;;5028226;28;20202;-74
2021/01/21 14:46:09;;;;;;;1.33;1.10;;;10.50;99.90;;;;;;5028251;28;20282;-73
2021/01/21 14:48:35;;;;;;;1.52;1.30;;;10.60;99.90;;;;;;5028223;28;20202;-74
2021/01/21 14:51:09;;;;;;;1.50;1.40;;;10.60;99.90;;;;;;5028278;28;20243;-74
2021/01/21 14:53:36;;;;;;;1.70;1.50;;;10.60;99.90;;;;;;5028871;28;20578;-74
2021/01/21 14:56:02;;;;;;;1.55;1.02;;;10.60;99.90;;;;;;5029164;28;20304;-73
2021/01/21 14:58:28;;;;;;;1.33;1.23;;;10.50;99.90;;;;;;5028833;28;20230;-74
2021/01/21 15:00:55;;;;;;;1.35;1.17;;;10.40;99.90;;;;;;5027870;28;20202;-72
2021/01/21 15:03:21;;;;;;;3.67;1.30;;;10.40;99.90;;;;;;5028088;28;20255;-74
2021/01/21 15:05:47;;;;;;;1.45;1.10;;;10.40;99.90;;;;;;5028497;28;20630;-74
2021/01/21 15:08:13;;;;;;;1.60;1.40;;;10.30;99.90;;;;;;5028321;28;20204;-74
2021/01/21 15:10:40;;;;;;;1.70;1.27;;;10.30;99.90;;;;;;5028640;28;20209;-74
2021/01/21 15:13:06;;;;;;;1.85;1.33;;;10.30;99.90;;;;;;5027342;28;20201;-74
2021/01/21 15:15:33;;;;;;;2.08;1.30;;;10.30;99.90;;;;;;5028583;28;20233;-73
2021/01/21 15:17:59;;;;;;;1.48;1.20;;;10.30;99.90;;;;;;5027599;28;20233;-73
2021/01/21 15:20:25;;;;;;;1.40;1.20;;;10.30;99.90;;;;;;5028825;28;20228;-74
2021/01/21 15:22:51;;;;;;;1.20;1.08;;;10.20;99.90;;;;;;5028058;28;20197;-74
2021/01/21 15:25:18;;;;;;;1.20;1.10;;;10.20;99.90;;;;;;5027918;28;20229;-74
2021/01/21 15:27:45;;;;;;;1.30;1.20;;;10.10;99.90;;;;;;5028639;28;20210;-74
2021/01/21 15:30:12;;;;;;;1.20;1.00;;;10.10;99.90;;;;;;5027880;28;20198;-74